sensor_id;sensor_type;location;lat;lon;timestamp;temperature;humidity
15700;DHT22;7950;42.744;23.174;2023-04-06T00:01:23;1.20;99.90
15700;DHT22;7950;42.744;23.174;2023-04-06T00:03:52;1.20;99.90
15700;DHT22;7950;42.744;23.174;2023-04-06T00:06:20;1.20;99.90
15700;DHT22;7950;42.744;23.174;2023-04-06T00:08:49;1.20;99.90
15700;DHT22;7950;42.744;23.174;2023-04-06T00:11:17;1.20;99.90
15700;DHT22;7950;42.744;23.174;2023-04-06T00:13:46;1.20;99.90
15700;DHT22;7950;42.744;23.174;2023-04-06T00:16:15;1.20;99.90
15700;DHT22;7950;42.744;23.174;2023-04-06T00:18:45;1.20;99.90
15700;DHT22;7950;42.744;23.174;2023-04-06T00:21:14;1.20;99.90
15700;DHT22;7950;42.744;23.174;2023-04-06T00:23:42;1.20;99.90
15700;DHT22;7950;42.744;23.174;2023-04-06T00:26:11;1.20;99.90
15700;DHT22;7950;42.744;23.174;2023-04-06T00:28:40;1.20;99.90
15700;DHT22;7950;42.744;23.174;2023-04-06T00:31:08;1.20;99.90
15700;DHT22;7950;42.744;23.174;2023-04-06T00:33:37;1.30;99.90
15700;DHT22;7950;42.744;23.174;2023-04-06T00:36:34;1.30;99.90
15700;DHT22;7950;42.744;23.174;2023-04-06T00:39:03;1.30;99.90
15700;DHT22;7950;42.744;23.174;2023-04-06T00:41:32;1.30;99.90
15700;DHT22;7950;42.744;23.174;2023-04-06T00:44:01;1.40;99.90
15700;DHT22;7950;42.744;23.174;2023-04-06T00:46:29;1.30;99.90
15700;DHT22;7950;42.744;23.174;2023-04-06T00:48:58;1.40;99.90
15700;DHT22;7950;42.744;23.174;2023-04-06T00:51:27;1.40;99.90
15700;DHT22;7950;42.744;23.174;2023-04-06T00:53:57;1.40;99.90
15700;DHT22;7950;42.744;23.174;2023-04-06T00:56:25;1.50;99.90
15700;DHT22;7950;42.744;23.174;2023-04-06T00:58:54;1.50;99.90
15700;DHT22;7950;42.744;23.174;2023-04-06T01:01:24;1.50;99.90
15700;DHT22;7950;42.744;23.174;2023-04-06T01:03:53;1.50;99.90
15700;DHT22;7950;42.744;23.174;2023-04-06T01:06:22;1.50;99.90
15700;DHT22;7950;42.744;23.174;2023-04-06T01:08:50;1.50;99.90
15700;DHT22;7950;42.744;23.174;2023-04-06T01:11:20;1.50;99.90
15700;DHT22;7950;42.744;23.174;2023-04-06T01:13:49;1.60;99.90
15700;DHT22;7950;42.744;23.174;2023-04-06T01:16:17;1.60;99.90
15700;DHT22;7950;42.744;23.174;2023-04-06T01:18:46;1.60;99.90
15700;DHT22;7950;42.744;23.174;2023-04-06T01:21:15;1.60;99.90
15700;DHT22;7950;42.744;23.174;2023-04-06T01:23:45;1.60;99.90
15700;DHT22;7950;42.744;23.174;2023-04-06T01:26:14;1.60;99.90
15700;DHT22;7950;42.744;23.174;2023-04-06T01:28:42;1.50;99.90
15700;DHT22;7950;42.744;23.174;2023-04-06T01:31:11;1.60;99.90
15700;DHT22;7950;42.744;23.174;2023-04-06T01:33:40;1.60;99.90
15700;DHT22;7950;42.744;23.174;2023-04-06T01:36:08;1.60;99.90
15700;DHT22;7950;42.744;23.174;2023-04-06T01:38:37;1.60;99.90
15700;DHT22;7950;42.744;23.174;2023-04-06T01:41:08;1.60;99.90
15700;DHT22;7950;42.744;23.174;2023-04-06T01:43:37;1.60;99.90
15700;DHT22;7950;42.744;23.174;2023-04-06T01:46:06;1.60;99.90
15700;DHT22;7950;42.744;23.174;2023-04-06T01:48:34;1.60;99.90
15700;DHT22;7950;42.744;23.174;2023-04-06T01:51:03;1.60;99.90
15700;DHT22;7950;42.744;23.174;2023-04-06T01:53:32;1.60;99.90
15700;DHT22;7950;42.744;23.174;2023-04-06T01:56:01;1.60;99.90
15700;DHT22;7950;42.744;23.174;2023-04-06T01:58:31;1.60;99.90
15700;DHT22;7950;42.744;23.174;2023-04-06T02:00:59;1.60;99.90
15700;DHT22;7950;42.744;23.174;2023-04-06T02:03:28;1.60;99.90
15700;DHT22;7950;42.744;23.174;2023-04-06T02:05:57;1.60;99.90
15700;DHT22;7950;42.744;23.174;2023-04-06T02:08:26;1.60;99.90
15700;DHT22;7950;42.744;23.174;2023-04-06T02:10:54;1.60;99.90
15700;DHT22;7950;42.744;23.174;2023-04-06T02:13:23;1.60;99.90
15700;DHT22;7950;42.744;23.174;2023-04-06T02:15:59;1.60;99.90
15700;DHT22;7950;42.744;23.174;2023-04-06T02:18:30;1.60;99.90
15700;DHT22;7950;42.744;23.174;2023-04-06T02:20:58;1.50;99.90
15700;DHT22;7950;42.744;23.174;2023-04-06T02:23:27;1.60;99.90
15700;DHT22;7950;42.744;23.174;2023-04-06T02:25:56;1.60;99.90
15700;DHT22;7950;42.744;23.174;2023-04-06T02:28:24;1.60;99.90
15700;DHT22;7950;42.744;23.174;2023-04-06T02:31:08;1.50;99.90
15700;DHT22;7950;42.744;23.174;2023-04-06T02:33:37;1.50;99.90
15700;DHT22;7950;42.744;23.174;2023-04-06T02:36:06;1.50;99.90
15700;DHT22;7950;42.744;23.174;2023-04-06T02:38:35;1.50;99.90
15700;DHT22;7950;42.744;23.174;2023-04-06T02:41:04;1.50;99.90
15700;DHT22;7950;42.744;23.174;2023-04-06T02:43:36;1.50;99.90
15700;DHT22;7950;42.744;23.174;2023-04-06T02:46:05;1.50;99.90
15700;DHT22;7950;42.744;23.174;2023-04-06T02:48:35;1.50;99.90
15700;DHT22;7950;42.744;23.174;2023-04-06T02:51:04;1.50;99.90
15700;DHT22;7950;42.744;23.174;2023-04-06T02:53:33;1.60;99.90
15700;DHT22;7950;42.744;23.174;2023-04-06T02:56:01;1.50;99.90
15700;DHT22;7950;42.744;23.174;2023-04-06T02:58:30;1.60;99.90
15700;DHT22;7950;42.744;23.174;2023-04-06T03:00:59;1.60;99.90
15700;DHT22;7950;42.744;23.174;2023-04-06T03:03:28;1.70;99.90
15700;DHT22;7950;42.744;23.174;2023-04-06T03:05:58;1.60;99.90
15700;DHT22;7950;42.744;23.174;2023-04-06T03:08:27;1.70;99.90
15700;DHT22;7950;42.744;23.174;2023-04-06T03:10:55;1.70;99.90
15700;DHT22;7950;42.744;23.174;2023-04-06T03:13:24;1.70;99.90
15700;DHT22;7950;42.744;23.174;2023-04-06T03:15:52;1.70;99.90
15700;DHT22;7950;42.744;23.174;2023-04-06T03:18:22;1.70;99.90
15700;DHT22;7950;42.744;23.174;2023-04-06T03:20:52;1.70;99.90
15700;DHT22;7950;42.744;23.174;2023-04-06T03:23:23;1.70;99.90
15700;DHT22;7950;42.744;23.174;2023-04-06T03:25:52;1.70;99.90
15700;DHT22;7950;42.744;23.174;2023-04-06T03:28:20;1.70;99.90
15700;DHT22;7950;42.744;23.174;2023-04-06T03:30:49;1.60;99.90
15700;DHT22;7950;42.744;23.174;2023-04-06T03:33:17;1.60;99.90
15700;DHT22;7950;42.744;23.174;2023-04-06T03:36:11;1.70;99.90
15700;DHT22;7950;42.744;23.174;2023-04-06T03:38:41;1.70;99.90
15700;DHT22;7950;42.744;23.174;2023-04-06T03:41:10;1.70;99.90
15700;DHT22;7950;42.744;23.174;2023-04-06T03:43:38;1.70;99.90
15700;DHT22;7950;42.744;23.174;2023-04-06T03:46:07;1.70;99.90
15700;DHT22;7950;42.744;23.174;2023-04-06T03:48:35;1.70;99.90
15700;DHT22;7950;42.744;23.174;2023-04-06T03:51:04;1.70;99.90
15700;DHT22;7950;42.744;23.174;2023-04-06T03:53:33;1.70;99.90
15700;DHT22;7950;42.744;23.174;2023-04-06T03:56:05;1.70;99.90
15700;DHT22;7950;42.744;23.174;2023-04-06T03:58:34;1.70;99.90
15700;DHT22;7950;42.744;23.174;2023-04-06T04:01:03;1.70;99.90
15700;DHT22;7950;42.744;23.174;2023-04-06T04:03:31;1.70;99.90
15700;DHT22;7950;42.744;23.174;2023-04-06T04:06:00;1.60;99.90
15700;DHT22;7950;42.744;23.174;2023-04-06T04:08:28;1.70;99.90
15700;DHT22;7950;42.744;23.174;2023-04-06T04:10:57;1.70;99.90
15700;DHT22;7950;42.744;23.174;2023-04-06T04:13:27;1.70;99.90
15700;DHT22;7950;42.744;23.174;2023-04-06T04:15:55;1.70;99.90
15700;DHT22;7950;42.744;23.174;2023-04-06T04:18:24;1.80;99.90
15700;DHT22;7950;42.744;23.174;2023-04-06T04:20:53;1.80;99.90
15700;DHT22;7950;42.744;23.174;2023-04-06T04:23:21;1.70;99.90
15700;DHT22;7950;42.744;23.174;2023-04-06T04:25:50;1.80;99.90
15700;DHT22;7950;42.744;23.174;2023-04-06T04:28:18;1.80;99.90
15700;DHT22;7950;42.744;23.174;2023-04-06T04:30:48;1.80;99.90
15700;DHT22;7950;42.744;23.174;2023-04-06T04:33:17;1.90;99.90
15700;DHT22;7950;42.744;23.174;2023-04-06T04:35:45;1.90;99.90
15700;DHT22;7950;42.744;23.174;2023-04-06T04:38:14;1.90;99.90
15700;DHT22;7950;42.744;23.174;2023-04-06T04:40:42;1.90;99.90
15700;DHT22;7950;42.744;23.174;2023-04-06T04:43:17;1.90;99.90
15700;DHT22;7950;42.744;23.174;2023-04-06T04:45:45;1.90;99.90
15700;DHT22;7950;42.744;23.174;2023-04-06T04:48:15;1.90;99.90
15700;DHT22;7950;42.744;23.174;2023-04-06T04:50:44;1.90;99.90
15700;DHT22;7950;42.744;23.174;2023-04-06T04:53:37;2.00;99.90
15700;DHT22;7950;42.744;23.174;2023-04-06T04:56:06;2.00;99.90
15700;DHT22;7950;42.744;23.174;2023-04-06T04:58:34;2.00;99.90
15700;DHT22;7950;42.744;23.174;2023-04-06T05:01:03;2.00;99.90
15700;DHT22;7950;42.744;23.174;2023-04-06T05:03:33;2.10;99.90
15700;DHT22;7950;42.744;23.174;2023-04-06T05:06:11;2.10;99.90
15700;DHT22;7950;42.744;23.174;2023-04-06T05:08:40;2.10;99.90
15700;DHT22;7950;42.744;23.174;2023-04-06T05:11:09;2.10;99.90
15700;DHT22;7950;42.744;23.174;2023-04-06T05:13:38;2.00;99.90
15700;DHT22;7950;42.744;23.174;2023-04-06T05:16:07;2.00;99.90
15700;DHT22;7950;42.744;23.174;2023-04-06T05:18:37;2.10;99.90
15700;DHT22;7950;42.744;23.174;2023-04-06T05:21:05;2.10;99.90
15700;DHT22;7950;42.744;23.174;2023-04-06T05:23:59;2.10;99.90
15700;DHT22;7950;42.744;23.174;2023-04-06T05:26:29;2.10;99.90
15700;DHT22;7950;42.744;23.174;2023-04-06T05:28:57;2.10;99.90
15700;DHT22;7950;42.744;23.174;2023-04-06T05:31:26;2.00;99.90
15700;DHT22;7950;42.744;23.174;2023-04-06T05:33:56;2.00;99.90
15700;DHT22;7950;42.744;23.174;2023-04-06T05:36:31;2.10;99.90
15700;DHT22;7950;42.744;23.174;2023-04-06T05:39:00;2.10;99.90
15700;DHT22;7950;42.744;23.174;2023-04-06T05:41:28;2.20;99.90
15700;DHT22;7950;42.744;23.174;2023-04-06T05:43:57;2.20;99.90
15700;DHT22;7950;42.744;23.174;2023-04-06T05:46:26;2.30;99.90
15700;DHT22;7950;42.744;23.174;2023-04-06T05:48:56;2.30;99.90
15700;DHT22;7950;42.744;23.174;2023-04-06T05:51:24;2.30;99.90
15700;DHT22;7950;42.744;23.174;2023-04-06T05:53:53;2.40;99.90
15700;DHT22;7950;42.744;23.174;2023-04-06T05:56:22;2.50;99.90
15700;DHT22;7950;42.744;23.174;2023-04-06T05:58:51;2.40;99.90
15700;DHT22;7950;42.744;23.174;2023-04-06T06:01:19;2.50;99.90
15700;DHT22;7950;42.744;23.174;2023-04-06T06:03:48;2.40;99.90
15700;DHT22;7950;42.744;23.174;2023-04-06T06:06:18;2.40;99.90
15700;DHT22;7950;42.744;23.174;2023-04-06T06:08:47;2.40;99.90
15700;DHT22;7950;42.744;23.174;2023-04-06T06:11:15;2.40;99.90
15700;DHT22;7950;42.744;23.174;2023-04-06T06:13:44;2.40;99.90
15700;DHT22;7950;42.744;23.174;2023-04-06T06:16:13;2.40;99.90
15700;DHT22;7950;42.744;23.174;2023-04-06T06:18:41;2.40;99.90
15700;DHT22;7950;42.744;23.174;2023-04-06T06:21:10;2.40;99.90
15700;DHT22;7950;42.744;23.174;2023-04-06T06:23:42;2.40;99.90
15700;DHT22;7950;42.744;23.174;2023-04-06T06:26:11;2.40;99.90
15700;DHT22;7950;42.744;23.174;2023-04-06T06:28:39;2.40;99.90
15700;DHT22;7950;42.744;23.174;2023-04-06T06:31:08;2.40;99.90
15700;DHT22;7950;42.744;23.174;2023-04-06T06:33:37;2.40;99.90
15700;DHT22;7950;42.744;23.174;2023-04-06T06:36:06;2.40;99.90
15700;DHT22;7950;42.744;23.174;2023-04-06T06:38:35;2.40;99.90
15700;DHT22;7950;42.744;23.174;2023-04-06T06:41:06;2.40;99.90
15700;DHT22;7950;42.744;23.174;2023-04-06T06:43:34;2.50;99.90
15700;DHT22;7950;42.744;23.174;2023-04-06T06:46:03;2.50;99.90
15700;DHT22;7950;42.744;23.174;2023-04-06T06:48:33;2.60;99.90
15700;DHT22;7950;42.744;23.174;2023-04-06T06:51:01;2.70;99.90
15700;DHT22;7950;42.744;23.174;2023-04-06T06:53:30;2.70;99.90
15700;DHT22;7950;42.744;23.174;2023-04-06T06:55:59;2.80;99.90
15700;DHT22;7950;42.744;23.174;2023-04-06T06:58:29;2.80;99.90
15700;DHT22;7950;42.744;23.174;2023-04-06T07:00:57;2.80;99.90
15700;DHT22;7950;42.744;23.174;2023-04-06T07:03:26;2.80;99.90
15700;DHT22;7950;42.744;23.174;2023-04-06T07:05:55;2.80;99.90
15700;DHT22;7950;42.744;23.174;2023-04-06T07:08:24;2.70;99.90
15700;DHT22;7950;42.744;23.174;2023-04-06T07:10:53;2.80;99.90
15700;DHT22;7950;42.744;23.174;2023-04-06T07:13:23;2.80;99.90
15700;DHT22;7950;42.744;23.174;2023-04-06T07:15:55;2.80;99.90
15700;DHT22;7950;42.744;23.174;2023-04-06T07:18:24;2.80;99.90
15700;DHT22;7950;42.744;23.174;2023-04-06T07:20:53;2.90;99.90
15700;DHT22;7950;42.744;23.174;2023-04-06T07:23:32;2.90;99.90
15700;DHT22;7950;42.744;23.174;2023-04-06T07:26:00;2.80;99.90
15700;DHT22;7950;42.744;23.174;2023-04-06T07:28:29;2.80;99.90
15700;DHT22;7950;42.744;23.174;2023-04-06T07:30:59;2.80;99.90
15700;DHT22;7950;42.744;23.174;2023-04-06T07:33:28;2.90;99.90
15700;DHT22;7950;42.744;23.174;2023-04-06T07:35:56;3.00;99.90
15700;DHT22;7950;42.744;23.174;2023-04-06T07:38:26;3.10;99.90
15700;DHT22;7950;42.744;23.174;2023-04-06T07:40:54;3.10;99.90
15700;DHT22;7950;42.744;23.174;2023-04-06T07:43:23;3.10;99.90
15700;DHT22;7950;42.744;23.174;2023-04-06T07:45:52;3.10;99.90
15700;DHT22;7950;42.744;23.174;2023-04-06T07:48:23;3.20;99.90
15700;DHT22;7950;42.744;23.174;2023-04-06T07:50:51;3.20;99.90
15700;DHT22;7950;42.744;23.174;2023-04-06T07:53:20;3.30;99.90
15700;DHT22;7950;42.744;23.174;2023-04-06T07:55:48;3.30;99.90
15700;DHT22;7950;42.744;23.174;2023-04-06T07:58:17;3.20;99.90
15700;DHT22;7950;42.744;23.174;2023-04-06T08:00:45;3.30;99.90
15700;DHT22;7950;42.744;23.174;2023-04-06T08:03:14;3.40;99.90
15700;DHT22;7950;42.744;23.174;2023-04-06T08:05:45;3.40;99.90
15700;DHT22;7950;42.744;23.174;2023-04-06T08:08:13;3.50;99.90
15700;DHT22;7950;42.744;23.174;2023-04-06T08:10:42;3.60;99.90
15700;DHT22;7950;42.744;23.174;2023-04-06T08:13:11;3.60;99.90
15700;DHT22;7950;42.744;23.174;2023-04-06T08:15:39;3.70;99.90
15700;DHT22;7950;42.744;23.174;2023-04-06T08:18:08;3.80;99.90
15700;DHT22;7950;42.744;23.174;2023-04-06T08:20:37;3.80;99.90
15700;DHT22;7950;42.744;23.174;2023-04-06T08:23:08;3.80;99.90
15700;DHT22;7950;42.744;23.174;2023-04-06T08:25:37;3.70;99.90
15700;DHT22;7950;42.744;23.174;2023-04-06T08:28:07;3.70;99.90
15700;DHT22;7950;42.744;23.174;2023-04-06T08:30:37;3.70;99.90
15700;DHT22;7950;42.744;23.174;2023-04-06T08:33:08;3.70;99.90
15700;DHT22;7950;42.744;23.174;2023-04-06T08:35:37;3.80;99.90
15700;DHT22;7950;42.744;23.174;2023-04-06T08:38:05;3.80;99.90
15700;DHT22;7950;42.744;23.174;2023-04-06T08:40:37;3.90;99.90
15700;DHT22;7950;42.744;23.174;2023-04-06T08:43:09;3.90;99.90
15700;DHT22;7950;42.744;23.174;2023-04-06T08:45:42;4.00;99.90
15700;DHT22;7950;42.744;23.174;2023-04-06T08:48:11;4.10;99.90
15700;DHT22;7950;42.744;23.174;2023-04-06T08:50:41;4.10;99.90
15700;DHT22;7950;42.744;23.174;2023-04-06T08:53:11;4.10;99.90
15700;DHT22;7950;42.744;23.174;2023-04-06T08:55:43;4.10;99.90
15700;DHT22;7950;42.744;23.174;2023-04-06T08:58:13;4.20;99.90
15700;DHT22;7950;42.744;23.174;2023-04-06T09:01:02;4.20;99.90
15700;DHT22;7950;42.744;23.174;2023-04-06T09:03:38;4.10;99.90
15700;DHT22;7950;42.744;23.174;2023-04-06T09:06:08;4.20;99.90
15700;DHT22;7950;42.744;23.174;2023-04-06T09:08:39;4.20;99.90
15700;DHT22;7950;42.744;23.174;2023-04-06T09:11:10;4.30;99.90
15700;DHT22;7950;42.744;23.174;2023-04-06T09:13:46;4.30;99.90
15700;DHT22;7950;42.744;23.174;2023-04-06T09:16:17;4.40;99.90
15700;DHT22;7950;42.744;23.174;2023-04-06T09:18:47;4.60;99.90
15700;DHT22;7950;42.744;23.174;2023-04-06T09:21:17;4.80;99.90
15700;DHT22;7950;42.744;23.174;2023-04-06T09:23:58;5.00;99.90
15700;DHT22;7950;42.744;23.174;2023-04-06T09:26:29;5.10;99.90
15700;DHT22;7950;42.744;23.174;2023-04-06T09:29:00;5.10;99.90
15700;DHT22;7950;42.744;23.174;2023-04-06T09:31:31;5.10;99.90
15700;DHT22;7950;42.744;23.174;2023-04-06T09:34:01;5.10;99.90
15700;DHT22;7950;42.744;23.174;2023-04-06T09:36:31;5.20;99.90
15700;DHT22;7950;42.744;23.174;2023-04-06T09:39:02;5.20;99.90
15700;DHT22;7950;42.744;23.174;2023-04-06T09:41:34;5.20;99.90
15700;DHT22;7950;42.744;23.174;2023-04-06T09:44:04;5.20;99.90
15700;DHT22;7950;42.744;23.174;2023-04-06T09:46:35;5.30;99.90
15700;DHT22;7950;42.744;23.174;2023-04-06T09:49:27;5.50;99.90
15700;DHT22;7950;42.744;23.174;2023-04-06T09:52:00;5.60;99.90
15700;DHT22;7950;42.744;23.174;2023-04-06T09:54:31;5.70;99.90
15700;DHT22;7950;42.744;23.174;2023-04-06T09:57:07;5.80;99.90
15700;DHT22;7950;42.744;23.174;2023-04-06T09:59:47;5.90;99.90
15700;DHT22;7950;42.744;23.174;2023-04-06T10:02:27;5.90;99.90
15700;DHT22;7950;42.744;23.174;2023-04-06T10:05:07;6.10;99.90
15700;DHT22;7950;42.744;23.174;2023-04-06T10:07:42;6.10;99.90
15700;DHT22;7950;42.744;23.174;2023-04-06T10:10:26;6.30;99.90
15700;DHT22;7950;42.744;23.174;2023-04-06T10:12:56;6.40;99.90
15700;DHT22;7950;42.744;23.174;2023-04-06T10:15:27;6.50;99.90
15700;DHT22;7950;42.744;23.174;2023-04-06T10:17:58;6.50;99.90
15700;DHT22;7950;42.744;23.174;2023-04-06T10:20:31;6.40;99.90
15700;DHT22;7950;42.744;23.174;2023-04-06T10:23:49;6.40;99.90
15700;DHT22;7950;42.744;23.174;2023-04-06T10:26:22;6.40;99.90
15700;DHT22;7950;42.744;23.174;2023-04-06T10:28:52;6.40;99.90
15700;DHT22;7950;42.744;23.174;2023-04-06T10:31:24;6.30;99.90
15700;DHT22;7950;42.744;23.174;2023-04-06T10:33:55;6.40;99.90
15700;DHT22;7950;42.744;23.174;2023-04-06T10:36:25;6.30;99.90
15700;DHT22;7950;42.744;23.174;2023-04-06T10:38:57;6.40;99.90
15700;DHT22;7950;42.744;23.174;2023-04-06T10:41:33;6.40;99.90
15700;DHT22;7950;42.744;23.174;2023-04-06T10:44:03;6.40;98.30
15700;DHT22;7950;42.744;23.174;2023-04-06T10:46:33;6.40;99.80
15700;DHT22;7950;42.744;23.174;2023-04-06T10:49:10;6.30;99.00
15700;DHT22;7950;42.744;23.174;2023-04-06T10:51:40;6.30;99.60
15700;DHT22;7950;42.744;23.174;2023-04-06T10:54:09;6.40;99.90
15700;DHT22;7950;42.744;23.174;2023-04-06T10:56:40;6.40;99.90
15700;DHT22;7950;42.744;23.174;2023-04-06T10:59:10;6.40;99.60
15700;DHT22;7950;42.744;23.174;2023-04-06T11:01:44;6.50;99.90
15700;DHT22;7950;42.744;23.174;2023-04-06T11:04:16;6.70;99.90
15700;DHT22;7950;42.744;23.174;2023-04-06T11:06:47;6.80;98.00
15700;DHT22;7950;42.744;23.174;2023-04-06T11:09:26;6.80;98.10
15700;DHT22;7950;42.744;23.174;2023-04-06T11:12:20;6.80;95.70
15700;DHT22;7950;42.744;23.174;2023-04-06T11:14:55;6.70;96.80
15700;DHT22;7950;42.744;23.174;2023-04-06T11:20:48;6.80;96.90
15700;DHT22;7950;42.744;23.174;2023-04-06T11:23:22;6.90;96.50
15700;DHT22;7950;42.744;23.174;2023-04-06T11:25:52;7.00;98.30
15700;DHT22;7950;42.744;23.174;2023-04-06T11:28:21;7.00;96.40
15700;DHT22;7950;42.744;23.174;2023-04-06T11:30:51;7.10;96.30
15700;DHT22;7950;42.744;23.174;2023-04-06T11:33:21;7.10;96.30
15700;DHT22;7950;42.744;23.174;2023-04-06T11:35:50;7.30;95.90
15700;DHT22;7950;42.744;23.174;2023-04-06T11:38:19;7.30;94.70
15700;DHT22;7950;42.744;23.174;2023-04-06T11:40:52;7.30;94.90
15700;DHT22;7950;42.744;23.174;2023-04-06T11:43:26;7.30;94.00
15700;DHT22;7950;42.744;23.174;2023-04-06T11:46:01;7.30;95.50
15700;DHT22;7950;42.744;23.174;2023-04-06T11:48:30;7.40;95.80
15700;DHT22;7950;42.744;23.174;2023-04-06T11:51:01;7.50;96.20
15700;DHT22;7950;42.744;23.174;2023-04-06T11:53:31;7.70;95.70
15700;DHT22;7950;42.744;23.174;2023-04-06T11:56:00;7.60;94.60
15700;DHT22;7950;42.744;23.174;2023-04-06T11:58:29;7.50;94.30
15700;DHT22;7950;42.744;23.174;2023-04-06T12:01:04;7.50;95.50
15700;DHT22;7950;42.744;23.174;2023-04-06T12:03:33;7.60;94.30
15700;DHT22;7950;42.744;23.174;2023-04-06T12:06:02;7.50;95.00
15700;DHT22;7950;42.744;23.174;2023-04-06T12:08:31;7.60;93.90
15700;DHT22;7950;42.744;23.174;2023-04-06T12:10:59;7.50;93.10
15700;DHT22;7950;42.744;23.174;2023-04-06T12:13:29;7.50;93.00
15700;DHT22;7950;42.744;23.174;2023-04-06T12:15:57;7.50;93.20
15700;DHT22;7950;42.744;23.174;2023-04-06T12:18:27;7.60;95.00
15700;DHT22;7950;42.744;23.174;2023-04-06T12:20:56;7.50;91.70
15700;DHT22;7950;42.744;23.174;2023-04-06T12:23:25;7.40;91.10
15700;DHT22;7950;42.744;23.174;2023-04-06T12:25:53;7.40;91.10
15700;DHT22;7950;42.744;23.174;2023-04-06T12:28:22;7.40;90.80
15700;DHT22;7950;42.744;23.174;2023-04-06T12:30:54;7.50;91.30
15700;DHT22;7950;42.744;23.174;2023-04-06T12:33:23;7.60;92.40
15700;DHT22;7950;42.744;23.174;2023-04-06T12:35:53;7.60;90.60
15700;DHT22;7950;42.744;23.174;2023-04-06T12:38:21;7.60;91.40
15700;DHT22;7950;42.744;23.174;2023-04-06T12:40:50;7.60;90.90
15700;DHT22;7950;42.744;23.174;2023-04-06T12:43:18;7.60;90.90
15700;DHT22;7950;42.744;23.174;2023-04-06T12:45:47;7.60;89.80
15700;DHT22;7950;42.744;23.174;2023-04-06T12:48:15;7.60;90.60
15700;DHT22;7950;42.744;23.174;2023-04-06T12:50:44;7.50;91.40
15700;DHT22;7950;42.744;23.174;2023-04-06T12:53:23;7.50;91.60
15700;DHT22;7950;42.744;23.174;2023-04-06T12:55:52;7.40;91.50
15700;DHT22;7950;42.744;23.174;2023-04-06T12:58:22;7.50;91.50
15700;DHT22;7950;42.744;23.174;2023-04-06T13:00:53;7.50;90.50
15700;DHT22;7950;42.744;23.174;2023-04-06T13:03:22;7.50;90.30
15700;DHT22;7950;42.744;23.174;2023-04-06T13:05:51;7.40;90.40
15700;DHT22;7950;42.744;23.174;2023-04-06T13:08:46;7.20;90.50
15700;DHT22;7950;42.744;23.174;2023-04-06T13:11:16;7.10;91.20
15700;DHT22;7950;42.744;23.174;2023-04-06T13:13:47;7.00;92.20
15700;DHT22;7950;42.744;23.174;2023-04-06T13:16:16;7.00;92.30
15700;DHT22;7950;42.744;23.174;2023-04-06T13:18:44;7.00;91.10
15700;DHT22;7950;42.744;23.174;2023-04-06T13:21:14;7.00;90.60
15700;DHT22;7950;42.744;23.174;2023-04-06T13:23:44;7.00;90.00
15700;DHT22;7950;42.744;23.174;2023-04-06T13:26:14;7.00;90.30
15700;DHT22;7950;42.744;23.174;2023-04-06T13:28:43;7.00;91.30
15700;DHT22;7950;42.744;23.174;2023-04-06T13:31:12;7.00;91.00
15700;DHT22;7950;42.744;23.174;2023-04-06T13:36:59;7.00;90.90
15700;DHT22;7950;42.744;23.174;2023-04-06T13:39:28;7.00;90.30
15700;DHT22;7950;42.744;23.174;2023-04-06T13:41:58;7.00;90.90
15700;DHT22;7950;42.744;23.174;2023-04-06T13:44:29;6.90;90.70
15700;DHT22;7950;42.744;23.174;2023-04-06T13:46:58;6.80;91.20
15700;DHT22;7950;42.744;23.174;2023-04-06T13:49:26;6.80;91.40
15700;DHT22;7950;42.744;23.174;2023-04-06T13:51:55;6.80;91.80
15700;DHT22;7950;42.744;23.174;2023-04-06T13:54:23;6.80;92.10
15700;DHT22;7950;42.744;23.174;2023-04-06T13:56:54;6.80;91.60
15700;DHT22;7950;42.744;23.174;2023-04-06T13:59:24;6.80;91.60
15700;DHT22;7950;42.744;23.174;2023-04-06T14:02:15;6.80;92.00
15700;DHT22;7950;42.744;23.174;2023-04-06T14:04:45;6.80;90.90
15700;DHT22;7950;42.744;23.174;2023-04-06T14:07:13;6.70;91.00
15700;DHT22;7950;42.744;23.174;2023-04-06T14:09:42;6.70;90.80
15700;DHT22;7950;42.744;23.174;2023-04-06T14:12:10;6.70;91.20
15700;DHT22;7950;42.744;23.174;2023-04-06T14:14:40;6.60;92.10
15700;DHT22;7950;42.744;23.174;2023-04-06T14:17:08;6.60;93.60
15700;DHT22;7950;42.744;23.174;2023-04-06T14:19:37;6.60;92.80
15700;DHT22;7950;42.744;23.174;2023-04-06T14:22:06;6.60;93.10
15700;DHT22;7950;42.744;23.174;2023-04-06T14:24:35;6.50;91.20
15700;DHT22;7950;42.744;23.174;2023-04-06T14:27:04;6.40;91.20
15700;DHT22;7950;42.744;23.174;2023-04-06T14:29:32;6.40;92.30
15700;DHT22;7950;42.744;23.174;2023-04-06T14:32:04;6.40;92.50
15700;DHT22;7950;42.744;23.174;2023-04-06T14:34:32;6.50;92.50
15700;DHT22;7950;42.744;23.174;2023-04-06T14:37:01;6.50;91.80
15700;DHT22;7950;42.744;23.174;2023-04-06T14:39:29;6.40;91.80
15700;DHT22;7950;42.744;23.174;2023-04-06T14:41:58;6.30;92.20
15700;DHT22;7950;42.744;23.174;2023-04-06T14:44:27;6.20;93.20
15700;DHT22;7950;42.744;23.174;2023-04-06T14:46:55;6.20;93.70
15700;DHT22;7950;42.744;23.174;2023-04-06T14:49:25;6.10;93.30
15700;DHT22;7950;42.744;23.174;2023-04-06T14:51:54;6.00;94.40
15700;DHT22;7950;42.744;23.174;2023-04-06T14:54:22;6.00;94.60
15700;DHT22;7950;42.744;23.174;2023-04-06T14:57:10;6.00;95.60
15700;DHT22;7950;42.744;23.174;2023-04-06T14:59:38;6.00;96.20
15700;DHT22;7950;42.744;23.174;2023-04-06T15:02:07;6.00;96.30
15700;DHT22;7950;42.744;23.174;2023-04-06T15:04:38;6.00;98.10
15700;DHT22;7950;42.744;23.174;2023-04-06T15:07:07;6.00;98.20
15700;DHT22;7950;42.744;23.174;2023-04-06T15:09:36;5.90;99.50
15700;DHT22;7950;42.744;23.174;2023-04-06T15:12:04;5.80;99.60
15700;DHT22;7950;42.744;23.174;2023-04-06T15:14:33;5.80;99.90
15700;DHT22;7950;42.744;23.174;2023-04-06T15:17:02;5.80;99.60
15700;DHT22;7950;42.744;23.174;2023-04-06T15:19:30;5.60;99.90
15700;DHT22;7950;42.744;23.174;2023-04-06T15:22:00;5.60;99.90
15700;DHT22;7950;42.744;23.174;2023-04-06T15:24:28;5.50;99.90
15700;DHT22;7950;42.744;23.174;2023-04-06T15:26:57;5.40;99.90
15700;DHT22;7950;42.744;23.174;2023-04-06T15:29:25;5.40;99.90
15700;DHT22;7950;42.744;23.174;2023-04-06T15:31:54;5.30;99.90
15700;DHT22;7950;42.744;23.174;2023-04-06T15:34:22;5.30;99.90
15700;DHT22;7950;42.744;23.174;2023-04-06T15:36:51;5.20;99.90
15700;DHT22;7950;42.744;23.174;2023-04-06T15:39:21;5.20;99.90
15700;DHT22;7950;42.744;23.174;2023-04-06T15:41:49;5.10;99.90
15700;DHT22;7950;42.744;23.174;2023-04-06T15:44:18;5.10;99.90
15700;DHT22;7950;42.744;23.174;2023-04-06T15:46:56;5.10;99.90
15700;DHT22;7950;42.744;23.174;2023-04-06T15:49:25;5.00;99.90
15700;DHT22;7950;42.744;23.174;2023-04-06T15:52:17;5.00;99.90
15700;DHT22;7950;42.744;23.174;2023-04-06T15:54:47;5.00;99.90
15700;DHT22;7950;42.744;23.174;2023-04-06T15:57:15;4.90;99.90
15700;DHT22;7950;42.744;23.174;2023-04-06T15:59:44;4.90;99.90
15700;DHT22;7950;42.744;23.174;2023-04-06T16:02:13;4.90;99.90
15700;DHT22;7950;42.744;23.174;2023-04-06T16:04:42;4.80;99.90
15700;DHT22;7950;42.744;23.174;2023-04-06T16:07:11;4.80;99.90
15700;DHT22;7950;42.744;23.174;2023-04-06T16:09:39;4.80;99.90
15700;DHT22;7950;42.744;23.174;2023-04-06T16:12:13;4.80;99.90